sensor_id;sensor_type;location;lat;lon;timestamp;P1;durP1;ratioP1;P2;durP2;ratioP2
13605;SDS011;6874;52.084;5.090;2023-05-10T00:01:03;62.03;;;59.97;;
13605;SDS011;6874;52.084;5.090;2023-05-10T00:03:29;59.20;;;57.23;;
13605;SDS011;6874;52.084;5.090;2023-05-10T00:05:54;56.10;;;54.23;;
13605;SDS011;6874;52.084;5.090;2023-05-10T00:08:20;56.23;;;54.33;;
13605;SDS011;6874;52.084;5.090;2023-05-10T00:10:45;54.67;;;52.83;;
13605;SDS011;6874;52.084;5.090;2023-05-10T00:13:11;54.03;;;52.23;;
13605;SDS011;6874;52.084;5.090;2023-05-10T00:15:37;51.17;;;49.47;;
13605;SDS011;6874;52.084;5.090;2023-05-10T00:18:02;51.97;;;50.27;;
13605;SDS011;6874;52.084;5.090;2023-05-10T00:20:28;52.63;;;50.87;;
13605;SDS011;6874;52.084;5.090;2023-05-10T00:22:53;46.97;;;45.47;;
13605;SDS011;6874;52.084;5.090;2023-05-10T00:25:19;46.60;;;45.10;;
13605;SDS011;6874;52.084;5.090;2023-05-10T00:27:46;48.23;;;46.63;;
13605;SDS011;6874;52.084;5.090;2023-05-10T00:30:12;44.17;;;42.73;;
13605;SDS011;6874;52.084;5.090;2023-05-10T00:32:38;48.93;;;47.33;;
13605;SDS011;6874;52.084;5.090;2023-05-10T00:35:03;45.67;;;44.17;;
13605;SDS011;6874;52.084;5.090;2023-05-10T00:37:29;45.13;;;43.63;;
13605;SDS011;6874;52.084;5.090;2023-05-10T00:39:55;46.07;;;44.53;;
13605;SDS011;6874;52.084;5.090;2023-05-10T00:42:20;43.47;;;42.07;;
13605;SDS011;6874;52.084;5.090;2023-05-10T00:44:47;43.67;;;42.23;;
13605;SDS011;6874;52.084;5.090;2023-05-10T00:47:12;43.83;;;42.40;;
13605;SDS011;6874;52.084;5.090;2023-05-10T00:49:38;43.37;;;41.97;;
13605;SDS011;6874;52.084;5.090;2023-05-10T00:52:04;42.63;;;41.23;;
13605;SDS011;6874;52.084;5.090;2023-05-10T00:54:30;45.40;;;43.90;;
13605;SDS011;6874;52.084;5.090;2023-05-10T00:56:55;45.83;;;44.33;;
13605;SDS011;6874;52.084;5.090;2023-05-10T00:59:22;46.43;;;44.90;;
13605;SDS011;6874;52.084;5.090;2023-05-10T01:01:47;47.83;;;46.23;;
13605;SDS011;6874;52.084;5.090;2023-05-10T01:04:13;47.40;;;45.80;;
13605;SDS011;6874;52.084;5.090;2023-05-10T01:06:39;47.67;;;46.07;;
13605;SDS011;6874;52.084;5.090;2023-05-10T01:09:08;51.80;;;50.07;;
13605;SDS011;6874;52.084;5.090;2023-05-10T01:11:35;51.13;;;49.40;;
13605;SDS011;6874;52.084;5.090;2023-05-10T01:14:02;47.97;;;46.33;;
13605;SDS011;6874;52.084;5.090;2023-05-10T01:16:29;49.27;;;47.60;;
13605;SDS011;6874;52.084;5.090;2023-05-10T01:19:02;51.07;;;49.33;;
13605;SDS011;6874;52.084;5.090;2023-05-10T01:21:43;54.37;;;52.53;;
13605;SDS011;6874;52.084;5.090;2023-05-10T01:32:55;75.03;;;72.40;;
13605;SDS011;6874;52.084;5.090;2023-05-10T01:35:49;81.03;;;78.23;;
13605;SDS011;6874;52.084;5.090;2023-05-10T01:38:41;80.50;;;77.67;;
13605;SDS011;6874;52.084;5.090;2023-05-10T01:41:19;80.97;;;78.07;;
13605;SDS011;6874;52.084;5.090;2023-05-10T01:46:37;73.83;;;71.23;;
13605;SDS011;6874;52.084;5.090;2023-05-10T01:49:12;72.80;;;70.27;;
13605;SDS011;6874;52.084;5.090;2023-05-10T01:51:47;77.97;;;75.23;;
13605;SDS011;6874;52.084;5.090;2023-05-10T01:54:17;75.27;;;72.63;;
13605;SDS011;6874;52.084;5.090;2023-05-10T01:56:45;69.07;;;66.67;;
13605;SDS011;6874;52.084;5.090;2023-05-10T01:59:15;71.07;;;68.57;;
13605;SDS011;6874;52.084;5.090;2023-05-10T02:01:44;70.37;;;67.93;;
13605;SDS011;6874;52.084;5.090;2023-05-10T02:04:13;64.70;;;62.47;;
13605;SDS011;6874;52.084;5.090;2023-05-10T02:06:41;66.10;;;63.80;;
13605;SDS011;6874;52.084;5.090;2023-05-10T02:09:09;65.30;;;63.03;;
13605;SDS011;6874;52.084;5.090;2023-05-10T02:11:37;65.33;;;63.07;;
13605;SDS011;6874;52.084;5.090;2023-05-10T02:14:04;65.00;;;62.77;;
13605;SDS011;6874;52.084;5.090;2023-05-10T02:16:32;64.07;;;61.83;;
13605;SDS011;6874;52.084;5.090;2023-05-10T02:19:01;63.27;;;61.10;;
13605;SDS011;6874;52.084;5.090;2023-05-10T02:21:27;67.23;;;64.93;;
13605;SDS011;6874;52.084;5.090;2023-05-10T02:23:55;60.57;;;58.50;;
13605;SDS011;6874;52.084;5.090;2023-05-10T02:26:23;65.40;;;63.17;;
13605;SDS011;6874;52.084;5.090;2023-05-10T02:28:50;68.70;;;66.33;;
13605;SDS011;6874;52.084;5.090;2023-05-10T02:31:16;65.30;;;63.03;;
13605;SDS011;6874;52.084;5.090;2023-05-10T02:33:43;65.23;;;63.00;;
13605;SDS011;6874;52.084;5.090;2023-05-10T02:36:10;66.87;;;64.53;;
13605;SDS011;6874;52.084;5.090;2023-05-10T02:38:37;64.67;;;62.43;;
13605;SDS011;6874;52.084;5.090;2023-05-10T02:41:03;63.13;;;60.97;;
13605;SDS011;6874;52.084;5.090;2023-05-10T02:43:31;68.43;;;66.10;;
13605;SDS011;6874;52.084;5.090;2023-05-10T02:45:58;70.50;;;68.07;;
13605;SDS011;6874;52.084;5.090;2023-05-10T02:48:23;74.00;;;71.43;;
13605;SDS011;6874;52.084;5.090;2023-05-10T02:50:50;73.50;;;70.97;;
13605;SDS011;6874;52.084;5.090;2023-05-10T02:53:18;78.90;;;76.20;;
13605;SDS011;6874;52.084;5.090;2023-05-10T02:55:49;80.97;;;78.17;;
13605;SDS011;6874;52.084;5.090;2023-05-10T02:58:16;84.10;;;81.20;;
13605;SDS011;6874;52.084;5.090;2023-05-10T03:00:44;92.67;;;89.43;;
13605;SDS011;6874;52.084;5.090;2023-05-10T03:03:10;86.03;;;83.03;;
13605;SDS011;6874;52.084;5.090;2023-05-10T03:05:35;88.90;;;85.80;;
13605;SDS011;6874;52.084;5.090;2023-05-10T03:08:01;94.93;;;91.63;;
13605;SDS011;6874;52.084;5.090;2023-05-10T03:10:29;97.27;;;93.87;;
13605;SDS011;6874;52.084;5.090;2023-05-10T03:15:57;117.23;;;113.00;;
13605;SDS011;6874;52.084;5.090;2023-05-10T03:18:32;118.63;;;114.30;;
13605;SDS011;6874;52.084;5.090;2023-05-10T03:21:02;123.90;;;119.43;;
13605;SDS011;6874;52.084;5.090;2023-05-10T03:23:44;122.40;;;117.93;;
13605;SDS011;6874;52.084;5.090;2023-05-10T03:26:17;134.23;;;129.40;;
13605;SDS011;6874;52.084;5.090;2023-05-10T03:28:50;134.23;;;129.43;;
13605;SDS011;6874;52.084;5.090;2023-05-10T03:31:18;135.40;;;130.57;;
13605;SDS011;6874;52.084;5.090;2023-05-10T03:33:47;141.77;;;136.70;;
13605;SDS011;6874;52.084;5.090;2023-05-10T03:36:13;136.83;;;131.87;;
13605;SDS011;6874;52.084;5.090;2023-05-10T03:38:39;131.13;;;126.43;;
13605;SDS011;6874;52.084;5.090;2023-05-10T03:41:05;132.77;;;128.07;;
13605;SDS011;6874;52.084;5.090;2023-05-10T03:43:30;133.00;;;128.20;;
13605;SDS011;6874;52.084;5.090;2023-05-10T03:45:56;144.90;;;139.70;;
13605;SDS011;6874;52.084;5.090;2023-05-10T03:48:21;143.40;;;138.33;;
13605;SDS011;6874;52.084;5.090;2023-05-10T03:50:46;138.03;;;133.07;;
13605;SDS011;6874;52.084;5.090;2023-05-10T03:53:14;135.27;;;130.47;;
13605;SDS011;6874;52.084;5.090;2023-05-10T03:55:40;142.50;;;137.40;;
13605;SDS011;6874;52.084;5.090;2023-05-10T03:58:05;143.47;;;138.43;;
13605;SDS011;6874;52.084;5.090;2023-05-10T04:00:31;142.40;;;137.33;;
13605;SDS011;6874;52.084;5.090;2023-05-10T04:02:57;144.63;;;139.50;;
13605;SDS011;6874;52.084;5.090;2023-05-10T04:05:23;142.50;;;137.43;;
13605;SDS011;6874;52.084;5.090;2023-05-10T04:07:49;147.70;;;142.50;;
13605;SDS011;6874;52.084;5.090;2023-05-10T04:10:15;144.30;;;139.10;;
13605;SDS011;6874;52.084;5.090;2023-05-10T04:12:41;141.43;;;136.33;;
13605;SDS011;6874;52.084;5.090;2023-05-10T04:15:07;140.97;;;135.97;;
13605;SDS011;6874;52.084;5.090;2023-05-10T04:17:33;149.07;;;143.70;;
13605;SDS011;6874;52.084;5.090;2023-05-10T04:19:59;152.50;;;147.00;;
13605;SDS011;6874;52.084;5.090;2023-05-10T04:22:24;160.03;;;154.30;;
13605;SDS011;6874;52.084;5.090;2023-05-10T04:24:50;164.43;;;158.57;;
13605;SDS011;6874;52.084;5.090;2023-05-10T04:27:15;157.50;;;151.80;;
13605;SDS011;6874;52.084;5.090;2023-05-10T04:29:41;152.50;;;147.00;;
13605;SDS011;6874;52.084;5.090;2023-05-10T04:32:06;155.53;;;149.93;;
13605;SDS011;6874;52.084;5.090;2023-05-10T04:34:32;165.13;;;159.23;;
13605;SDS011;6874;52.084;5.090;2023-05-10T04:36:59;161.70;;;155.90;;
13605;SDS011;6874;52.084;5.090;2023-05-10T04:39:24;157.77;;;152.07;;
13605;SDS011;6874;52.084;5.090;2023-05-10T04:41:50;148.60;;;143.23;;
13605;SDS011;6874;52.084;5.090;2023-05-10T04:44:15;166.67;;;160.70;;
13605;SDS011;6874;52.084;5.090;2023-05-10T04:46:41;158.07;;;152.23;;
13605;SDS011;6874;52.084;5.090;2023-05-10T04:49:06;167.07;;;160.97;;
13605;SDS011;6874;52.084;5.090;2023-05-10T04:51:32;166.17;;;160.10;;
13605;SDS011;6874;52.084;5.090;2023-05-10T04:53:58;151.23;;;145.63;;
13605;SDS011;6874;52.084;5.090;2023-05-10T04:56:23;158.63;;;152.73;;
13605;SDS011;6874;52.084;5.090;2023-05-10T04:58:49;154.27;;;148.63;;
13605;SDS011;6874;52.084;5.090;2023-05-10T05:01:14;148.27;;;142.87;;
13605;SDS011;6874;52.084;5.090;2023-05-10T05:03:40;148.70;;;143.20;;
13605;SDS011;6874;52.084;5.090;2023-05-10T05:06:05;145.37;;;139.87;;
13605;SDS011;6874;52.084;5.090;2023-05-10T05:08:31;147.30;;;141.80;;
13605;SDS011;6874;52.084;5.090;2023-05-10T05:10:57;136.77;;;131.67;;
13605;SDS011;6874;52.084;5.090;2023-05-10T05:13:22;134.80;;;129.77;;
13605;SDS011;6874;52.084;5.090;2023-05-10T05:15:48;129.00;;;124.10;;
13605;SDS011;6874;52.084;5.090;2023-05-10T05:18:14;124.33;;;119.63;;
13605;SDS011;6874;52.084;5.090;2023-05-10T05:20:39;124.73;;;120.03;;
13605;SDS011;6874;52.084;5.090;2023-05-10T05:23:05;117.23;;;112.87;;
13605;SDS011;6874;52.084;5.090;2023-05-10T05:25:31;114.27;;;110.03;;
13605;SDS011;6874;52.084;5.090;2023-05-10T05:27:56;111.87;;;107.67;;
13605;SDS011;6874;52.084;5.090;2023-05-10T05:30:22;115.57;;;111.33;;
13605;SDS011;6874;52.084;5.090;2023-05-10T05:32:47;112.93;;;108.80;;
13605;SDS011;6874;52.084;5.090;2023-05-10T05:35:13;107.53;;;103.60;;
13605;SDS011;6874;52.084;5.090;2023-05-10T05:37:39;109.43;;;105.53;;
13605;SDS011;6874;52.084;5.090;2023-05-10T05:40:04;108.17;;;104.27;;
13605;SDS011;6874;52.084;5.090;2023-05-10T05:42:31;104.37;;;100.67;;
13605;SDS011;6874;52.084;5.090;2023-05-10T05:44:57;103.53;;;99.80;;
13605;SDS011;6874;52.084;5.090;2023-05-10T05:47:22;103.23;;;99.57;;
13605;SDS011;6874;52.084;5.090;2023-05-10T05:49:48;102.07;;;98.37;;
13605;SDS011;6874;52.084;5.090;2023-05-10T05:52:13;105.17;;;101.37;;
13605;SDS011;6874;52.084;5.090;2023-05-10T05:54:39;105.03;;;101.23;;
13605;SDS011;6874;52.084;5.090;2023-05-10T05:57:04;109.50;;;105.53;;
13605;SDS011;6874;52.084;5.090;2023-05-10T05:59:30;100.50;;;96.90;;
13605;SDS011;6874;52.084;5.090;2023-05-10T06:01:56;102.03;;;98.37;;
13605;SDS011;6874;52.084;5.090;2023-05-10T06:04:21;102.23;;;98.53;;
13605;SDS011;6874;52.084;5.090;2023-05-10T06:06:47;106.33;;;102.50;;
13605;SDS011;6874;52.084;5.090;2023-05-10T06:09:12;104.27;;;100.53;;
13605;SDS011;6874;52.084;5.090;2023-05-10T06:11:38;104.87;;;101.07;;
13605;SDS011;6874;52.084;5.090;2023-05-10T06:14:04;107.57;;;103.67;;
13605;SDS011;6874;52.084;5.090;2023-05-10T06:16:33;100.90;;;97.30;;
13605;SDS011;6874;52.084;5.090;2023-05-10T06:18:59;107.57;;;103.73;;
13605;SDS011;6874;52.084;5.090;2023-05-10T06:21:24;102.33;;;98.63;;
13605;SDS011;6874;52.084;5.090;2023-05-10T06:23:50;114.30;;;110.23;;
13605;SDS011;6874;52.084;5.090;2023-05-10T06:26:16;108.53;;;104.63;;
13605;SDS011;6874;52.084;5.090;2023-05-10T06:28:41;118.03;;;113.83;;
13605;SDS011;6874;52.084;5.090;2023-05-10T06:31:07;114.60;;;110.60;;
13605;SDS011;6874;52.084;5.090;2023-05-10T06:33:33;114.70;;;110.60;;
13605;SDS011;6874;52.084;5.090;2023-05-10T06:35:58;125.17;;;120.73;;
13605;SDS011;6874;52.084;5.090;2023-05-10T06:38:24;138.73;;;133.90;;
13605;SDS011;6874;52.084;5.090;2023-05-10T06:40:50;136.83;;;132.00;;
13605;SDS011;6874;52.084;5.090;2023-05-10T06:43:16;132.03;;;127.33;;
13605;SDS011;6874;52.084;5.090;2023-05-10T06:45:41;137.40;;;132.47;;
13605;SDS011;6874;52.084;5.090;2023-05-10T06:48:07;134.07;;;129.30;;
13605;SDS011;6874;52.084;5.090;2023-05-10T06:50:33;151.40;;;145.93;;
13605;SDS011;6874;52.084;5.090;2023-05-10T06:52:59;141.13;;;135.90;;
13605;SDS011;6874;52.084;5.090;2023-05-10T06:55:25;150.63;;;145.00;;
13605;SDS011;6874;52.084;5.090;2023-05-10T06:57:51;157.63;;;151.50;;
13605;SDS011;6874;52.084;5.090;2023-05-10T07:00:17;172.40;;;165.60;;
13605;SDS011;6874;52.084;5.090;2023-05-10T07:02:43;174.43;;;167.47;;
13605;SDS011;6874;52.084;5.090;2023-05-10T07:05:09;173.63;;;166.70;;
13605;SDS011;6874;52.084;5.090;2023-05-10T07:07:34;174.77;;;167.73;;
13605;SDS011;6874;52.084;5.090;2023-05-10T07:10:00;170.73;;;164.10;;
13605;SDS011;6874;52.084;5.090;2023-05-10T07:12:26;160.53;;;154.40;;
13605;SDS011;6874;52.084;5.090;2023-05-10T07:14:52;155.63;;;149.87;;
13605;SDS011;6874;52.084;5.090;2023-05-10T07:17:17;140.90;;;135.63;;
13605;SDS011;6874;52.084;5.090;2023-05-10T07:19:43;140.60;;;135.33;;
13605;SDS011;6874;52.084;5.090;2023-05-10T07:22:09;143.13;;;137.73;;
13605;SDS011;6874;52.084;5.090;2023-05-10T07:24:34;145.47;;;139.97;;
13605;SDS011;6874;52.084;5.090;2023-05-10T07:27:00;142.33;;;136.93;;
13605;SDS011;6874;52.084;5.090;2023-05-10T07:29:26;149.73;;;144.07;;
13605;SDS011;6874;52.084;5.090;2023-05-10T07:31:51;139.67;;;134.30;;
13605;SDS011;6874;52.084;5.090;2023-05-10T07:34:17;143.77;;;138.33;;
13605;SDS011;6874;52.084;5.090;2023-05-10T07:36:43;145.10;;;139.60;;
13605;SDS011;6874;52.084;5.090;2023-05-10T07:39:09;143.63;;;138.13;;
13605;SDS011;6874;52.084;5.090;2023-05-10T07:41:34;148.77;;;143.00;;
13605;SDS011;6874;52.084;5.090;2023-05-10T07:44:00;149.47;;;143.70;;
13605;SDS011;6874;52.084;5.090;2023-05-10T07:46:25;145.63;;;140.00;;
13605;SDS011;6874;52.084;5.090;2023-05-10T07:48:51;151.07;;;145.30;;
13605;SDS011;6874;52.084;5.090;2023-05-10T07:51:17;149.50;;;143.83;;
13605;SDS011;6874;52.084;5.090;2023-05-10T07:53:42;146.17;;;140.60;;
13605;SDS011;6874;52.084;5.090;2023-05-10T07:56:27;146.67;;;141.07;;
13605;SDS011;6874;52.084;5.090;2023-05-10T07:58:57;135.63;;;130.60;;
13605;SDS011;6874;52.084;5.090;2023-05-10T08:01:29;145.07;;;139.70;;
13605;SDS011;6874;52.084;5.090;2023-05-10T08:03:57;141.27;;;135.90;;
13605;SDS011;6874;52.084;5.090;2023-05-10T08:06:22;148.47;;;142.90;;
13605;SDS011;6874;52.084;5.090;2023-05-10T08:08:48;143.23;;;137.83;;
13605;SDS011;6874;52.084;5.090;2023-05-10T08:11:16;147.80;;;142.30;;
13605;SDS011;6874;52.084;5.090;2023-05-10T08:13:42;145.90;;;140.53;;
13605;SDS011;6874;52.084;5.090;2023-05-10T08:16:09;141.57;;;136.33;;
13605;SDS011;6874;52.084;5.090;2023-05-10T08:18:34;131.80;;;127.00;;
13605;SDS011;6874;52.084;5.090;2023-05-10T08:21:00;134.70;;;129.87;;
13605;SDS011;6874;52.084;5.090;2023-05-10T08:23:25;132.30;;;127.53;;
13605;SDS011;6874;52.084;5.090;2023-05-10T08:25:51;135.63;;;130.77;;
13605;SDS011;6874;52.084;5.090;2023-05-10T08:28:17;133.00;;;128.20;;
13605;SDS011;6874;52.084;5.090;2023-05-10T08:30:42;135.43;;;130.60;;
13605;SDS011;6874;52.084;5.090;2023-05-10T08:33:08;129.97;;;125.27;;
13605;SDS011;6874;52.084;5.090;2023-05-10T08:35:33;137.10;;;132.03;;
13605;SDS011;6874;52.084;5.090;2023-05-10T08:37:59;133.47;;;128.53;;
13605;SDS011;6874;52.084;5.090;2023-05-10T08:40:26;134.63;;;129.70;;
13605;SDS011;6874;52.084;5.090;2023-05-10T08:42:55;133.80;;;128.97;;
13605;SDS011;6874;52.084;5.090;2023-05-10T08:45:30;132.27;;;127.47;;
13605;SDS011;6874;52.084;5.090;2023-05-10T08:47:58;137.60;;;132.63;;
13605;SDS011;6874;52.084;5.090;2023-05-10T08:50:26;134.93;;;130.03;;
13605;SDS011;6874;52.084;5.090;2023-05-10T08:52:52;136.70;;;131.73;;
13605;SDS011;6874;52.084;5.090;2023-05-10T08:55:23;133.60;;;128.80;;
13605;SDS011;6874;52.084;5.090;2023-05-10T08:57:49;142.07;;;136.87;;
13605;SDS011;6874;52.084;5.090;2023-05-10T09:00:15;141.70;;;136.53;;
13605;SDS011;6874;52.084;5.090;2023-05-10T09:02:41;137.90;;;132.90;;
13605;SDS011;6874;52.084;5.090;2023-05-10T09:05:09;134.53;;;129.70;;
13605;SDS011;6874;52.084;5.090;2023-05-10T09:07:35;139.83;;;134.80;;
13605;SDS011;6874;52.084;5.090;2023-05-10T09:10:01;144.00;;;138.77;;
13605;SDS011;6874;52.084;5.090;2023-05-10T09:12:27;135.20;;;130.37;;
13605;SDS011;6874;52.084;5.090;2023-05-10T09:14:53;136.00;;;131.17;;
13605;SDS011;6874;52.084;5.090;2023-05-10T09:17:21;125.80;;;121.43;;
13605;SDS011;6874;52.084;5.090;2023-05-10T09:19:48;123.03;;;118.80;;
13605;SDS011;6874;52.084;5.090;2023-05-10T09:22:13;122.63;;;118.37;;
13605;SDS011;6874;52.084;5.090;2023-05-10T09:24:39;125.70;;;121.37;;
13605;SDS011;6874;52.084;5.090;2023-05-10T09:27:09;124.57;;;120.30;;
13605;SDS011;6874;52.084;5.090;2023-05-10T09:29:42;127.57;;;123.20;;
13605;SDS011;6874;52.084;5.090;2023-05-10T09:32:08;129.70;;;125.27;;
13605;SDS011;6874;52.084;5.090;2023-05-10T09:34:33;140.33;;;135.50;;
13605;SDS011;6874;52.084;5.090;2023-05-10T09:37:05;138.13;;;133.33;;
13605;SDS011;6874;52.084;5.090;2023-05-10T09:39:34;141.47;;;136.53;;
13605;SDS011;6874;52.084;5.090;2023-05-10T09:42:02;147.57;;;142.43;;
13605;SDS011;6874;52.084;5.090;2023-05-10T09:44:30;150.63;;;145.37;;
13605;SDS011;6874;52.084;5.090;2023-05-10T09:46:57;161.73;;;156.07;;
13605;SDS011;6874;52.084;5.090;2023-05-10T09:49:23;161.63;;;155.87;;
13605;SDS011;6874;52.084;5.090;2023-05-10T09:52:02;158.20;;;152.57;;
13605;SDS011;6874;52.084;5.090;2023-05-10T09:54:32;165.00;;;159.10;;
13605;SDS011;6874;52.084;5.090;2023-05-10T09:56:58;166.90;;;160.90;;
13605;SDS011;6874;52.084;5.090;2023-05-10T09:59:25;167.60;;;161.47;;
13605;SDS011;6874;52.084;5.090;2023-05-10T10:01:52;174.33;;;167.90;;
13605;SDS011;6874;52.084;5.090;2023-05-10T10:04:20;175.07;;;168.53;;
13605;SDS011;6874;52.084;5.090;2023-05-10T10:06:46;179.73;;;172.97;;
13605;SDS011;6874;52.084;5.090;2023-05-10T10:09:22;178.40;;;171.67;;
13605;SDS011;6874;52.084;5.090;2023-05-10T10:11:49;178.40;;;171.67;;
13605;SDS011;6874;52.084;5.090;2023-05-10T10:14:14;191.20;;;183.97;;
13605;SDS011;6874;52.084;5.090;2023-05-10T10:16:43;186.23;;;179.13;;
13605;SDS011;6874;52.084;5.090;2023-05-10T10:19:08;197.37;;;189.67;;
13605;SDS011;6874;52.084;5.090;2023-05-10T10:21:35;202.37;;;194.47;;
13605;SDS011;6874;52.084;5.090;2023-05-10T10:24:00;220.20;;;211.60;;
13605;SDS011;6874;52.084;5.090;2023-05-10T10:26:26;227.87;;;219.00;;
13605;SDS011;6874;52.084;5.090;2023-05-10T10:29:39;213.37;;;205.07;;
13605;SDS011;6874;52.084;5.090;2023-05-10T10:31:55;211.13;;;203.17;;
13605;SDS011;6874;52.084;5.090;2023-05-10T10:34:31;217.53;;;209.40;;
13605;SDS011;6874;52.084;5.090;2023-05-10T10:36:57;203.87;;;196.23;;
13605;SDS011;6874;52.084;5.090;2023-05-10T10:39:28;209.87;;;202.07;;
13605;SDS011;6874;52.084;5.090;2023-05-10T10:41:54;191.77;;;184.70;;
13605;SDS011;6874;52.084;5.090;2023-05-10T10:52:14;191.30;;;184.47;;
13605;SDS011;6874;52.084;5.090;2023-05-10T10:54:52;174.97;;;168.77;;
13605;SDS011;6874;52.084;5.090;2023-05-10T10:57:32;153.10;;;147.67;;
13605;SDS011;6874;52.084;5.090;2023-05-10T11:02:48;132.37;;;127.70;;
13605;SDS011;6874;52.084;5.090;2023-05-10T11:05:23;154.90;;;149.50;;
13605;SDS011;6874;52.084;5.090;2023-05-10T11:07:55;180.67;;;174.37;;
13605;SDS011;6874;52.084;5.090;2023-05-10T11:10:23;214.13;;;206.50;;
13605;SDS011;6874;52.084;5.090;2023-05-10T11:15:35;300.33;;;288.63;;
13605;SDS011;6874;52.084;5.090;2023-05-10T11:18:19;341.87;;;328.10;;
13605;SDS011;6874;52.084;5.090;2023-05-10T11:20:50;338.00;;;324.33;;
13605;SDS011;6874;52.084;5.090;2023-05-10T11:23:16;336.63;;;323.23;;
13605;SDS011;6874;52.084;5.090;2023-05-10T11:25:43;348.23;;;334.37;;
13605;SDS011;6874;52.084;5.090;2023-05-10T11:28:09;351.97;;;338.03;;
13605;SDS011;6874;52.084;5.090;2023-05-10T11:30:37;358.60;;;344.50;;
13605;SDS011;6874;52.084;5.090;2023-05-10T11:33:05;350.83;;;337.23;;
13605;SDS011;6874;52.084;5.090;2023-05-10T11:35:36;330.17;;;317.63;;
13605;SDS011;6874;52.084;5.090;2023-05-10T11:38:05;310.70;;;299.13;;
13605;SDS011;6874;52.084;5.090;2023-05-10T11:40:34;301.93;;;290.73;;
13605;SDS011;6874;52.084;5.090;2023-05-10T11:43:01;306.30;;;294.93;;
13605;SDS011;6874;52.084;5.090;2023-05-10T11:45:27;305.70;;;294.30;;
13605;SDS011;6874;52.084;5.090;2023-05-10T11:47:54;299.57;;;288.33;;
13605;SDS011;6874;52.084;5.090;2023-05-10T11:50:20;278.67;;;268.37;;
13605;SDS011;6874;52.084;5.090;2023-05-10T11:52:50;249.83;;;240.60;;
13605;SDS011;6874;52.084;5.090;2023-05-10T11:55:17;234.47;;;225.87;;
13605;SDS011;6874;52.084;5.090;2023-05-10T11:57:42;209.33;;;201.70;;
13605;SDS011;6874;52.084;5.090;2023-05-10T12:00:10;208.33;;;200.77;;
13605;SDS011;6874;52.084;5.090;2023-05-10T12:02:37;192.10;;;185.03;;
13605;SDS011;6874;52.084;5.090;2023-05-10T12:05:03;208.73;;;201.00;;
13605;SDS011;6874;52.084;5.090;2023-05-10T12:07:30;211.97;;;204.07;;
13605;SDS011;6874;52.084;5.090;2023-05-10T12:12:37;241.80;;;232.53;;
13605;SDS011;6874;52.084;5.090;2023-05-10T12:15:13;245.63;;;236.30;;
13605;SDS011;6874;52.084;5.090;2023-05-10T12:17:46;297.63;;;286.10;;
13605;SDS011;6874;52.084;5.090;2023-05-10T12:20:22;310.00;;;297.87;;
13605;SDS011;6874;52.084;5.090;2023-05-10T12:22:55;301.33;;;289.50;;
13605;SDS011;6874;52.084;5.090;2023-05-10T12:25:23;308.47;;;296.40;;
13605;SDS011;6874;52.084;5.090;2023-05-10T12:27:54;354.83;;;340.70;;
13605;SDS011;6874;52.084;5.090;2023-05-10T12:30:22;365.67;;;351.53;;
13605;SDS011;6874;52.084;5.090;2023-05-10T12:32:49;361.97;;;348.23;;
13605;SDS011;6874;52.084;5.090;2023-05-10T12:35:15;317.27;;;305.97;;
13605;SDS011;6874;52.084;5.090;2023-05-10T12:37:44;291.37;;;281.23;;
13605;SDS011;6874;52.084;5.090;2023-05-10T12:40:10;239.00;;;230.80;;
13605;SDS011;6874;52.084;5.090;2023-05-10T12:42:36;216.63;;;209.30;;
13605;SDS011;6874;52.084;5.090;2023-05-10T12:45:03;206.80;;;199.90;;
13605;SDS011;6874;52.084;5.090;2023-05-10T12:47:30;197.73;;;191.20;;
13605;SDS011;6874;52.084;5.090;2023-05-10T12:49:59;208.30;;;201.47;;
13605;SDS011;6874;52.084;5.090;2023-05-10T12:52:26;220.23;;;212.97;;
13605;SDS011;6874;52.084;5.090;2023-05-10T12:54:52;213.40;;;206.33;;
13605;SDS011;6874;52.084;5.090;2023-05-10T12:57:18;228.93;;;221.23;;
13605;SDS011;6874;52.084;5.090;2023-05-10T12:59:45;260.17;;;251.37;;
13605;SDS011;6874;52.084;5.090;2023-05-10T13:02:10;275.93;;;266.30;;
13605;SDS011;6874;52.084;5.090;2023-05-10T13:04:36;331.60;;;319.60;;
13605;SDS011;6874;52.084;5.090;2023-05-10T13:07:05;371.97;;;357.90;;
13605;SDS011;6874;52.084;5.090;2023-05-10T13:09:31;389.93;;;375.30;;
13605;SDS011;6874;52.084;5.090;2023-05-10T13:11:57;388.60;;;373.73;;
13605;SDS011;6874;52.084;5.090;2023-05-10T13:14:24;412.30;;;396.37;;
13605;SDS011;6874;52.084;5.090;2023-05-10T13:16:50;425.20;;;408.33;;
13605;SDS011;6874;52.084;5.090;2023-05-10T13:19:16;424.37;;;407.33;;
13605;SDS011;6874;52.084;5.090;2023-05-10T13:21:42;393.60;;;377.80;;
13605;SDS011;6874;52.084;5.090;2023-05-10T13:24:09;373.77;;;358.83;;
13605;SDS011;6874;52.084;5.090;2023-05-10T13:26:35;351.97;;;338.07;;
13605;SDS011;6874;52.084;5.090;2023-05-10T13:29:02;327.67;;;315.03;;
13605;SDS011;6874;52.084;5.090;2023-05-10T13:31:28;310.83;;;299.03;;
13605;SDS011;6874;52.084;5.090;2023-05-10T13:33:53;300.37;;;289.00;;
13605;SDS011;6874;52.084;5.090;2023-05-10T13:36:19;282.87;;;272.33;;
13605;SDS011;6874;52.084;5.090;2023-05-10T13:38:44;273.30;;;263.20;;
13605;SDS011;6874;52.084;5.090;2023-05-10T13:41:10;261.07;;;251.50;;
13605;SDS011;6874;52.084;5.090;2023-05-10T13:43:36;252.57;;;243.33;;
13605;SDS011;6874;52.084;5.090;2023-05-10T13:46:01;236.00;;;227.53;;
13605;SDS011;6874;52.084;5.090;2023-05-10T13:48:27;237.63;;;229.13;;
13605;SDS011;6874;52.084;5.090;2023-05-10T13:50:53;236.27;;;227.80;;
13605;SDS011;6874;52.084;5.090;2023-05-10T13:53:19;238.23;;;229.77;;
13605;SDS011;6874;52.084;5.090;2023-05-10T13:55:44;234.80;;;226.50;;
13605;SDS011;6874;52.084;5.090;2023-05-10T13:58:10;234.97;;;226.60;;
13605;SDS011;6874;52.084;5.090;2023-05-10T14:00:35;235.00;;;226.63;;
13605;SDS011;6874;52.084;5.090;2023-05-10T14:03:01;235.33;;;226.90;;
13605;SDS011;6874;52.084;5.090;2023-05-10T14:05:27;249.53;;;240.63;;
13605;SDS011;6874;52.084;5.090;2023-05-10T14:07:52;267.60;;;257.90;;
13605;SDS011;6874;52.084;5.090;2023-05-10T14:10:18;281.07;;;270.83;;
13605;SDS011;6874;52.084;5.090;2023-05-10T14:12:44;285.63;;;275.10;;
13605;SDS011;6874;52.084;5.090;2023-05-10T14:15:09;299.83;;;288.70;;
13605;SDS011;6874;52.084;5.090;2023-05-10T14:17:36;299.47;;;288.17;;
13605;SDS011;6874;52.084;5.090;2023-05-10T14:20:02;307.63;;;296.07;;
13605;SDS011;6874;52.084;5.090;2023-05-10T14:22:28;309.53;;;297.73;;
13605;SDS011;6874;52.084;5.090;2023-05-10T14:24:54;318.80;;;306.67;;
13605;SDS011;6874;52.084;5.090;2023-05-10T14:27:20;327.70;;;314.97;;
13605;SDS011;6874;52.084;5.090;2023-05-10T14:29:46;334.07;;;320.93;;
13605;SDS011;6874;52.084;5.090;2023-05-10T14:32:12;329.20;;;316.20;;
13605;SDS011;6874;52.084;5.090;2023-05-10T14:34:38;337.40;;;324.07;;
13605;SDS011;6874;52.084;5.090;2023-05-10T14:37:03;343.03;;;329.47;;
13605;SDS011;6874;52.084;5.090;2023-05-10T14:39:29;358.27;;;344.13;;
13605;SDS011;6874;52.084;5.090;2023-05-10T14:41:55;344.80;;;331.17;;
13605;SDS011;6874;52.084;5.090;2023-05-10T14:44:21;340.40;;;326.83;;